Time;durP1;ratioP1;P1;durP2;ratioP2;P2;SDS_P1;SDS_P2;PMS_P1;PMS_P2;Temp;Humidity;BMP_temperature;BMP_pressure;BME280_temperature;BME280_humidity;BME280_pressure;Samples;Min_cycle;Max_cycle;Signal;HPM_P1;HPM_P2
2021/08/04 00:02:13;;;;;;;1.50;1.40;;;17.20;99.90;;;;;;5036392;28;20676;-69
2021/08/04 00:04:39;;;;;;;2.00;1.80;;;17.20;99.90;;;;;;5036603;28;20303;-69
2021/08/04 00:07:06;;;;;;;3.65;1.90;;;17.20;99.90;;;;;;5036178;28;20210;-69
2021/08/04 00:09:33;;;;;;;1.95;1.80;;;17.10;99.90;;;;;;5036581;28;20199;-69
2021/08/04 00:12:00;;;;;;;1.75;1.65;;;17.10;99.90;;;;;;5036378;28;20547;-69
2021/08/04 00:14:27;;;;;;;1.70;1.40;;;17.10;99.90;;;;;;5036329;28;20295;-69
2021/08/04 00:16:53;;;;;;;1.90;1.70;;;17.10;99.90;;;;;;5035965;28;20208;-70
2021/08/04 00:19:21;;;;;;;1.70;1.60;;;17.00;99.90;;;;;;5036311;28;20588;-69
2021/08/04 00:21:48;;;;;;;1.60;1.50;;;17.10;99.90;;;;;;5036290;28;20211;-69
2021/08/04 00:24:15;;;;;;;1.70;1.60;;;17.10;99.90;;;;;;5036153;28;20295;-69
2021/08/04 00:26:42;;;;;;;1.70;1.60;;;17.00;99.90;;;;;;5035780;28;20291;-69
2021/08/04 00:29:09;;;;;;;1.90;1.80;;;17.00;99.90;;;;;;5036156;28;20219;-69
2021/08/04 00:31:35;;;;;;;2.00;1.52;;;17.00;99.90;;;;;;5035943;28;20765;-69
2021/08/04 00:34:02;;;;;;;1.95;1.60;;;17.00;99.90;;;;;;5036113;28;20300;-68
2021/08/04 00:36:31;;;;;;;1.85;1.45;;;17.00;99.90;;;;;;5035886;28;20206;-69
2021/08/04 00:38:58;;;;;;;1.73;1.58;;;16.90;99.90;;;;;;5035925;28;20228;-69
2021/08/04 00:41:25;;;;;;;2.97;1.70;;;16.90;99.90;;;;;;5035293;28;20204;-69
2021/08/04 00:43:52;;;;;;;2.13;1.95;;;16.90;99.90;;;;;;5036445;28;20214;-69
2021/08/04 00:46:19;;;;;;;3.03;1.92;;;16.80;99.90;;;;;;5035671;28;20295;-70
2021/08/04 00:48:46;;;;;;;2.35;2.15;;;16.80;99.90;;;;;;5035861;28;20219;-69
2021/08/04 00:51:13;;;;;;;2.20;2.00;;;16.80;99.90;;;;;;5035720;28;20200;-69
2021/08/04 00:53:41;;;;;;;2.15;1.92;;;16.90;99.90;;;;;;5035822;28;20208;-69
2021/08/04 00:56:09;;;;;;;1.95;1.85;;;16.80;99.90;;;;;;5035487;28;20243;-69
2021/08/04 00:58:38;;;;;;;1.85;1.50;;;16.90;99.90;;;;;;5035480;28;20229;-69
2021/08/04 01:01:12;;;;;;;2.55;2.05;;;16.80;99.90;;;;;;5035559;28;20207;-69
2021/08/04 01:03:43;;;;;;;2.05;1.40;;;16.80;99.90;;;;;;5035548;28;20208;-68
2021/08/04 01:06:15;;;;;;;1.85;1.73;;;16.80;99.90;;;;;;5034978;28;20207;-68
2021/08/04 01:08:49;;;;;;;2.03;1.80;;;16.70;99.90;;;;;;5035133;28;20230;-68
2021/08/04 01:11:16;;;;;;;1.60;1.50;;;16.70;99.90;;;;;;5035392;28;20208;-68
2021/08/04 01:13:49;;;;;;;1.50;1.40;;;16.60;99.90;;;;;;5035320;28;20206;-68
2021/08/04 01:16:22;;;;;;;2.28;1.20;;;16.60;99.90;;;;;;5034883;28;20212;-68
2021/08/04 01:18:58;;;;;;;2.65;1.75;;;16.60;99.90;;;;;;5035057;28;20242;-68
2021/08/04 01:21:35;;;;;;;1.60;1.45;;;16.60;99.90;;;;;;5035218;28;20211;-68
2021/08/04 01:24:11;;;;;;;1.83;1.45;;;16.60;99.90;;;;;;5035166;28;20213;-68
2021/08/04 01:26:41;;;;;;;2.30;1.50;;;16.70;99.90;;;;;;5035080;28;20680;-68
2021/08/04 01:29:11;;;;;;;1.67;1.35;;;16.70;99.90;;;;;;5034702;28;20220;-68
2021/08/04 01:31:39;;;;;;;1.80;1.70;;;16.80;99.90;;;;;;5034992;28;20209;-68
2021/08/04 01:34:07;;;;;;;1.70;1.60;;;16.80;99.90;;;;;;5034949;28;20204;-68
2021/08/04 01:36:35;;;;;;;1.50;1.40;;;16.80;99.90;;;;;;5034765;28;20217;-69
2021/08/04 01:39:06;;;;;;;1.65;1.55;;;16.90;99.90;;;;;;5034783;28;20241;-69
2021/08/04 01:41:35;;;;;;;2.40;1.67;;;16.90;99.90;;;;;;5035010;28;20211;-69
2021/08/04 01:44:05;;;;;;;2.88;1.60;;;17.00;99.90;;;;;;5034778;28;20277;-69
2021/08/04 01:46:32;;;;;;;1.75;1.42;;;16.90;99.90;;;;;;5034777;28;20211;-68
2021/08/04 01:49:01;;;;;;;1.75;1.65;;;16.90;99.90;;;;;;5034648;28;20313;-69
2021/08/04 01:51:29;;;;;;;1.58;1.42;;;16.70;99.90;;;;;;5033584;28;20296;-68
2021/08/04 01:53:57;;;;;;;1.73;1.60;;;16.70;99.90;;;;;;5034449;28;20666;-68
2021/08/04 01:56:24;;;;;;;1.65;1.45;;;16.60;99.90;;;;;;5034064;28;20212;-68
2021/08/04 01:58:51;;;;;;;2.15;1.65;;;16.50;99.90;;;;;;5034396;28;20231;-68
2021/08/04 02:01:20;;;;;;;2.38;1.92;;;16.50;99.90;;;;;;5034420;28;20570;-68
2021/08/04 02:03:46;;;;;;;1.75;1.65;;;16.50;99.90;;;;;;5034334;28;20689;-69
2021/08/04 02:06:21;;;;;;;1.35;1.25;;;16.50;99.90;;;;;;5034006;28;20207;-69
2021/08/04 02:08:59;;;;;;;1.60;1.50;;;16.50;99.90;;;;;;5034038;28;20415;-69
2021/08/04 02:11:38;;;;;;;1.98;1.77;;;16.60;99.90;;;;;;5034336;28;20214;-69
2021/08/04 02:14:13;;;;;;;1.75;1.65;;;16.60;99.90;;;;;;5034215;28;20207;-69
2021/08/04 02:16:47;;;;;;;1.77;1.50;;;16.50;99.90;;;;;;5033744;28;20688;-69
2021/08/04 02:19:20;;;;;;;1.90;1.70;;;16.50;99.90;;;;;;5033932;28;20231;-69
2021/08/04 02:21:52;;;;;;;1.70;1.60;;;16.50;99.90;;;;;;5033900;28;20683;-69
2021/08/04 02:24:24;;;;;;;2.33;1.60;;;16.50;99.90;;;;;;5033949;28;20299;-69
2021/08/04 02:26:53;;;;;;;1.70;1.58;;;16.50;99.90;;;;;;5033872;28;20211;-69
2021/08/04 02:29:23;;;;;;;1.83;1.63;;;16.50;99.90;;;;;;5033964;28;20198;-69
2021/08/04 02:31:51;;;;;;;1.85;1.65;;;16.50;99.90;;;;;;5033918;28;20210;-68
2021/08/04 02:34:19;;;;;;;2.67;1.50;;;16.50;99.90;;;;;;5033804;28;20200;-69
2021/08/04 02:36:46;;;;;;;1.52;1.40;;;16.60;99.90;;;;;;5033642;28;20206;-68
2021/08/04 02:39:13;;;;;;;1.77;1.58;;;16.60;99.90;;;;;;5033706;28;20224;-68
2021/08/04 02:41:40;;;;;;;1.80;1.48;;;16.60;99.90;;;;;;5033744;28;20207;-68
2021/08/04 02:44:08;;;;;;;1.70;1.60;;;16.70;99.90;;;;;;5033636;28;20207;-68
2021/08/04 02:46:35;;;;;;;1.63;1.52;;;16.70;99.90;;;;;;5033333;28;20684;-68
2021/08/04 02:49:04;;;;;;;1.50;1.40;;;16.60;99.90;;;;;;5033344;28;20236;-68
2021/08/04 02:51:31;;;;;;;1.90;1.50;;;16.50;99.90;;;;;;5033648;28;20204;-68
2021/08/04 02:54:00;;;;;;;2.25;1.75;;;16.30;99.90;;;;;;5033542;28;20290;-68
2021/08/04 02:56:27;;;;;;;1.85;1.48;;;16.20;99.90;;;;;;5033157;28;20262;-68
2021/08/04 02:58:54;;;;;;;2.20;1.90;;;16.00;99.90;;;;;;5033511;28;20234;-69
2021/08/04 03:01:21;;;;;;;2.50;1.70;;;16.00;99.90;;;;;;5033441;28;20232;-69
2021/08/04 03:03:48;;;;;;;1.52;1.42;;;16.00;99.90;;;;;;5033067;28;20305;-69
2021/08/04 03:06:16;;;;;;;2.45;1.90;;;15.90;99.90;;;;;;5033311;28;20217;-68
2021/08/04 03:08:43;;;;;;;2.03;1.85;;;15.90;99.90;;;;;;5033380;28;20230;-69
2021/08/04 03:11:10;;;;;;;1.65;1.55;;;15.90;99.90;;;;;;5033422;28;20203;-68
2021/08/04 03:13:37;;;;;;;1.88;1.77;;;15.90;99.90;;;;;;5033155;28;20593;-68
2021/08/04 03:16:05;;;;;;;2.20;1.77;;;15.80;99.90;;;;;;5032978;28;20581;-69
2021/08/04 03:18:32;;;;;;;1.45;1.30;;;15.80;99.90;;;;;;5033042;28;20737;-68
2021/08/04 03:20:59;;;;;;;1.58;1.48;;;15.90;99.90;;;;;;5033207;28;20232;-68
2021/08/04 03:23:27;;;;;;;2.13;1.90;;;15.80;99.90;;;;;;5033051;28;20213;-68
2021/08/04 03:25:54;;;;;;;1.52;1.42;;;15.90;99.90;;;;;;5032860;28;20230;-69
2021/08/04 03:28:21;;;;;;;1.70;1.58;;;16.00;99.90;;;;;;5033323;28;20223;-68
2021/08/04 03:30:48;;;;;;;1.77;1.50;;;16.10;99.90;;;;;;5033298;28;20598;-68
2021/08/04 03:33:15;;;;;;;1.40;1.30;;;16.20;99.90;;;;;;5033282;28;20301;-68
2021/08/04 03:35:42;;;;;;;2.03;1.83;;;16.30;99.90;;;;;;5032978;28;20207;-69
2021/08/04 03:38:08;;;;;;;2.00;1.80;;;16.40;99.90;;;;;;5032997;28;20322;-68
2021/08/04 03:40:37;;;;;;;1.52;1.42;;;16.40;99.90;;;;;;5033144;28;20227;-68
2021/08/04 03:43:04;;;;;;;2.85;1.50;;;16.40;99.90;;;;;;5033164;28;20207;-69
2021/08/04 03:45:30;;;;;;;1.63;1.38;;;16.40;99.90;;;;;;5032951;28;20229;-69
2021/08/04 03:47:57;;;;;;;1.55;1.40;;;16.50;99.90;;;;;;5032993;28;20228;-68
2021/08/04 03:50:24;;;;;;;1.50;1.40;;;16.50;99.90;;;;;;5033365;28;20295;-68
2021/08/04 03:52:51;;;;;;;1.95;1.70;;;16.50;99.90;;;;;;5033035;28;20211;-69
2021/08/04 03:55:18;;;;;;;2.08;1.88;;;16.50;99.90;;;;;;5033286;28;20233;-68
2021/08/04 03:57:46;;;;;;;1.58;1.48;;;16.60;99.90;;;;;;5032970;28;20314;-69
2021/08/04 04:00:13;;;;;;;1.70;1.60;;;16.60;99.90;;;;;;5032954;28;20315;-68
2021/08/04 04:02:40;;;;;;;1.83;1.50;;;16.60;99.90;;;;;;5033046;28;20207;-68
2021/08/04 04:05:08;;;;;;;1.73;1.63;;;16.60;99.90;;;;;;5032950;28;20204;-69
2021/08/04 04:07:36;;;;;;;1.58;1.48;;;16.60;99.90;;;;;;5032833;28;20311;-69
2021/08/04 04:10:04;;;;;;;1.80;1.70;;;16.50;99.90;;;;;;5032904;28;20210;-68
2021/08/04 04:12:31;;;;;;;1.95;1.80;;;16.40;99.90;;;;;;5032706;28;20666;-69
2021/08/04 04:14:59;;;;;;;1.85;1.55;;;16.40;99.90;;;;;;5033437;28;20210;-69
2021/08/04 04:17:26;;;;;;;1.90;1.52;;;16.50;99.90;;;;;;5036366;28;20608;-68
2021/08/04 04:19:53;;;;;;;1.70;1.48;;;16.40;99.90;;;;;;5036243;28;20231;-69
2021/08/04 04:22:19;;;;;;;1.80;1.70;;;16.50;99.90;;;;;;5036304;28;20214;-68
2021/08/04 04:24:46;;;;;;;1.60;1.50;;;16.50;99.90;;;;;;5036076;28;20212;-69
2021/08/04 04:27:13;;;;;;;1.80;1.60;;;16.50;99.90;;;;;;5035968;28;20219;-69
2021/08/04 04:29:40;;;;;;;1.85;1.70;;;16.40;99.90;;;;;;5035945;28;20211;-68
2021/08/04 04:32:10;;;;;;;1.35;1.25;;;16.50;99.90;;;;;;5036149;28;20297;-68
2021/08/04 04:34:37;;;;;;;1.80;1.70;;;16.50;99.90;;;;;;5035998;28;20207;-69
2021/08/04 04:37:04;;;;;;;1.80;1.50;;;16.50;99.90;;;;;;5035598;28;20270;-68
2021/08/04 04:39:31;;;;;;;2.10;1.65;;;16.40;99.90;;;;;;5036100;28;20210;-69
2021/08/04 04:41:58;;;;;;;2.28;1.65;;;16.50;99.90;;;;;;5035959;28;20294;-68
2021/08/04 04:44:25;;;;;;;1.70;1.60;;;16.40;99.90;;;;;;5035936;28;20214;-68
2021/08/04 04:46:52;;;;;;;2.85;1.55;;;16.40;99.90;;;;;;5035425;28;20207;-70
2021/08/04 04:49:20;;;;;;;1.70;1.45;;;16.30;99.90;;;;;;5035801;28;20224;-69
2021/08/04 04:51:47;;;;;;;1.50;1.40;;;16.30;99.90;;;;;;5035755;28;20204;-69
2021/08/04 04:54:14;;;;;;;1.55;1.45;;;16.20;99.90;;;;;;5035608;28;20206;-68
2021/08/04 04:56:40;;;;;;;2.20;2.00;;;16.10;99.90;;;;;;5035336;28;20576;-69
2021/08/04 04:59:07;;;;;;;1.77;1.67;;;16.20;99.90;;;;;;5035633;28;20228;-68
2021/08/04 05:01:34;;;;;;;1.98;1.80;;;16.20;99.90;;;;;;5035412;28;20317;-69
2021/08/04 05:04:01;;;;;;;1.80;1.70;;;16.30;99.90;;;;;;5035281;28;20302;-69
2021/08/04 05:06:30;;;;;;;3.63;1.90;;;16.30;99.90;;;;;;5035290;28;20214;-68
2021/08/04 05:08:57;;;;;;;2.25;1.70;;;16.30;99.90;;;;;;5035190;28;20237;-69
2021/08/04 05:11:23;;;;;;;1.80;1.70;;;16.40;99.90;;;;;;5035314;28;20205;-69
2021/08/04 05:13:50;;;;;;;1.83;1.65;;;16.40;99.90;;;;;;5035354;28;20257;-69
2021/08/04 05:16:17;;;;;;;1.92;1.70;;;16.50;99.90;;;;;;5034722;28;20214;-69
2021/08/04 05:18:44;;;;;;;2.20;1.85;;;16.60;99.90;;;;;;5034918;28;20313;-69
2021/08/04 05:21:11;;;;;;;2.63;1.80;;;16.70;99.90;;;;;;5035047;28;20319;-69
2021/08/04 05:23:39;;;;;;;3.15;1.70;;;16.80;99.90;;;;;;5035189;28;20629;-68
2021/08/04 05:26:06;;;;;;;1.75;1.65;;;16.80;99.90;;;;;;5034767;28;20208;-68
2021/08/04 05:28:32;;;;;;;2.03;1.83;;;16.70;99.90;;;;;;5034837;28;20407;-69
2021/08/04 05:30:59;;;;;;;1.88;1.65;;;16.80;99.90;;;;;;5035052;28;20211;-69
2021/08/04 05:33:26;;;;;;;2.05;1.85;;;16.80;99.90;;;;;;5034984;28;20311;-68
2021/08/04 05:35:53;;;;;;;1.70;1.60;;;16.90;99.90;;;;;;5034577;28;20302;-69
2021/08/04 05:38:20;;;;;;;1.85;1.60;;;16.90;99.90;;;;;;5035209;28;20227;-69
2021/08/04 05:40:48;;;;;;;2.10;1.90;;;16.90;99.90;;;;;;5034677;28;20224;-69
2021/08/04 05:43:15;;;;;;;1.73;1.63;;;16.90;99.90;;;;;;5034737;28;20295;-69
2021/08/04 05:45:42;;;;;;;1.95;1.83;;;16.90;99.90;;;;;;5035003;28;20200;-69
2021/08/04 05:48:09;;;;;;;1.85;1.63;;;17.10;99.90;;;;;;5035109;28;20220;-69
2021/08/04 05:50:36;;;;;;;2.80;1.90;;;17.10;99.90;;;;;;5034614;28;20573;-69
2021/08/04 05:53:03;;;;;;;1.55;1.45;;;17.10;99.90;;;;;;5034701;28;20284;-69
2021/08/04 05:55:29;;;;;;;1.73;1.55;;;17.20;99.90;;;;;;5034357;28;20547;-69
2021/08/04 05:57:58;;;;;;;2.20;2.00;;;17.20;99.90;;;;;;5034401;28;20315;-69
2021/08/04 06:00:24;;;;;;;1.80;1.65;;;17.20;99.90;;;;;;5034358;28;20315;-69
2021/08/04 06:02:51;;;;;;;1.70;1.58;;;17.30;99.90;;;;;;5034483;28;20204;-69
2021/08/04 06:05:18;;;;;;;1.70;1.60;;;17.40;99.90;;;;;;5034227;28;20294;-69
2021/08/04 06:07:45;;;;;;;1.77;1.63;;;17.30;99.90;;;;;;5034163;28;20227;-69
2021/08/04 06:10:12;;;;;;;2.13;1.70;;;17.20;99.90;;;;;;5034258;28;20200;-69
2021/08/04 06:12:39;;;;;;;1.70;1.60;;;17.30;99.90;;;;;;5034284;28;20200;-69
2021/08/04 06:15:08;;;;;;;2.80;1.70;;;17.40;99.90;;;;;;5034002;28;20206;-68
2021/08/04 06:17:35;;;;;;;2.17;1.80;;;17.50;99.90;;;;;;5033888;28;20236;-69
2021/08/04 06:20:03;;;;;;;1.95;1.77;;;17.40;99.90;;;;;;5034159;28;20236;-69
2021/08/04 06:22:30;;;;;;;1.85;1.75;;;17.50;99.90;;;;;;5033993;28;20211;-69
2021/08/04 06:24:57;;;;;;;2.70;2.40;;;17.60;99.90;;;;;;5033839;28;20326;-69
2021/08/04 06:27:23;;;;;;;2.53;1.80;;;17.60;99.90;;;;;;5033918;28;20228;-69
2021/08/04 06:29:50;;;;;;;2.63;1.77;;;17.50;99.90;;;;;;5033737;28;20211;-69
2021/08/04 06:32:18;;;;;;;2.08;1.77;;;17.60;99.90;;;;;;5033930;28;20557;-69
2021/08/04 06:34:45;;;;;;;1.80;1.70;;;17.70;99.90;;;;;;5033921;28;20200;-70
2021/08/04 06:37:12;;;;;;;1.80;1.70;;;17.80;99.90;;;;;;5033327;28;20205;-69
2021/08/04 06:39:39;;;;;;;1.90;1.80;;;18.00;99.90;;;;;;5033624;28;20215;-69
2021/08/04 06:42:06;;;;;;;1.73;1.60;;;18.00;99.90;;;;;;5034136;28;20234;-69
2021/08/04 06:44:33;;;;;;;1.80;1.60;;;18.10;99.90;;;;;;5033759;28;20551;-69
2021/08/04 06:47:00;;;;;;;1.70;1.40;;;18.20;99.90;;;;;;5033451;28;20204;-69
2021/08/04 06:49:28;;;;;;;2.65;1.95;;;18.20;99.90;;;;;;5033450;28;20688;-69
2021/08/04 06:51:55;;;;;;;1.70;1.60;;;18.20;99.90;;;;;;5033533;28;20725;-69
2021/08/04 06:54:23;;;;;;;1.63;1.52;;;18.30;99.90;;;;;;5033694;28;20608;-69
2021/08/04 06:56:50;;;;;;;1.75;1.50;;;18.30;99.90;;;;;;5033475;28;20200;-69
2021/08/04 06:59:17;;;;;;;1.73;1.63;;;18.40;99.90;;;;;;5033543;28;20220;-69
2021/08/04 07:01:45;;;;;;;2.00;1.65;;;18.40;99.90;;;;;;5033481;28;20307;-69
2021/08/04 07:04:12;;;;;;;2.20;1.90;;;18.40;99.90;;;;;;5033505;28;20204;-69
2021/08/04 07:06:51;;;;;;;2.00;1.80;;;18.40;99.90;;;;;;5033219;28;20200;-69
2021/08/04 07:09:18;;;;;;;1.90;1.40;;;18.50;99.90;;;;;;5033578;28;20227;-69
2021/08/04 07:11:45;;;;;;;1.33;1.23;;;18.50;99.90;;;;;;5033346;28;20200;-69
2021/08/04 07:14:12;;;;;;;4.75;1.70;;;18.50;99.90;;;;;;5033533;28;20447;-69
2021/08/04 07:16:39;;;;;;;1.50;1.40;;;18.50;99.90;;;;;;5032944;28;20677;-69
2021/08/04 07:19:06;;;;;;;2.30;2.10;;;18.50;99.90;;;;;;5033347;28;20228;-69
2021/08/04 07:21:32;;;;;;;1.85;1.65;;;18.60;99.90;;;;;;5033085;28;20228;-69
2021/08/04 07:24:01;;;;;;;2.63;2.20;;;18.60;99.90;;;;;;5033338;28;20297;-69
2021/08/04 07:26:27;;;;;;;1.73;1.63;;;18.60;99.90;;;;;;5033163;28;20538;-69
2021/08/04 07:28:56;;;;;;;2.30;1.88;;;18.70;99.90;;;;;;5033276;28;20553;-69
2021/08/04 07:31:23;;;;;;;1.63;1.52;;;18.90;99.90;;;;;;5033277;28;20671;-69
2021/08/04 07:33:51;;;;;;;1.90;1.60;;;19.00;99.90;;;;;;5033203;28;20215;-69
2021/08/04 07:36:18;;;;;;;1.50;1.40;;;19.00;99.90;;;;;;5033116;28;20444;-69
2021/08/04 07:38:45;;;;;;;1.57;1.47;;;19.10;99.90;;;;;;5032879;28;20468;-69
2021/08/04 07:41:13;;;;;;;2.03;1.73;;;19.10;99.90;;;;;;5032812;28;20471;-69
2021/08/04 07:43:40;;;;;;;2.55;1.77;;;19.00;99.90;;;;;;5033170;28;20443;-69
2021/08/04 07:46:07;;;;;;;2.00;1.85;;;18.90;99.90;;;;;;5033010;28;20237;-69
2021/08/04 07:48:35;;;;;;;1.43;1.33;;;18.80;99.90;;;;;;5033300;28;20319;-69
2021/08/04 07:51:02;;;;;;;2.00;1.80;;;18.90;99.90;;;;;;5036853;28;20482;-69
2021/08/04 07:53:29;;;;;;;1.73;1.63;;;18.70;99.90;;;;;;5036853;28;20256;-69
2021/08/04 07:55:56;;;;;;;2.90;2.00;;;18.80;99.90;;;;;;5036481;28;20205;-69
2021/08/04 07:58:24;;;;;;;4.50;3.80;;;18.70;99.90;;;;;;5036542;28;20317;-69
2021/08/04 08:00:51;;;;;;;2.38;2.17;;;18.90;99.90;;;;;;5036626;28;20208;-69
2021/08/04 08:03:18;;;;;;;5.70;3.05;;;18.90;99.90;;;;;;5036496;28;20211;-69
2021/08/04 08:05:45;;;;;;;2.13;1.93;;;18.90;99.90;;;;;;5036266;28;20208;-69
2021/08/04 08:08:13;;;;;;;1.87;1.67;;;19.10;99.90;;;;;;5036541;28;20479;-69
2021/08/04 08:10:41;;;;;;;1.60;1.50;;;19.30;99.90;;;;;;5036326;28;20493;-69
2021/08/04 08:13:08;;;;;;;1.60;1.50;;;19.10;99.90;;;;;;5036514;28;20485;-69
2021/08/04 08:15:37;;;;;;;1.90;1.70;;;19.70;99.90;;;;;;5036259;28;20444;-69
2021/08/04 08:18:06;;;;;;;2.00;1.60;;;19.90;99.90;;;;;;5036414;28;20557;-69
2021/08/04 08:20:33;;;;;;;3.03;1.37;;;20.10;99.90;;;;;;5036650;28;20444;-69
2021/08/04 08:23:00;;;;;;;1.70;1.60;;;20.30;99.90;;;;;;5036131;28;20564;-69
2021/08/04 08:25:27;;;;;;;1.63;1.53;;;20.40;99.90;;;;;;5036057;28;20540;-69
2021/08/04 08:27:54;;;;;;;1.63;1.53;;;20.30;99.90;;;;;;5036074;28;20920;-69
2021/08/04 08:30:20;;;;;;;1.57;1.40;;;20.30;99.90;;;;;;5036203;28;20801;-69
2021/08/04 08:32:49;;;;;;;1.77;1.67;;;20.30;99.90;;;;;;5036157;28;20444;-69
2021/08/04 08:35:17;;;;;;;1.80;1.70;;;20.10;99.90;;;;;;5035884;28;20454;-69
2021/08/04 08:37:44;;;;;;;1.73;1.63;;;19.90;99.90;;;;;;5035890;28;20551;-69
2021/08/04 08:40:12;;;;;;;1.93;1.73;;;19.80;99.90;;;;;;5035665;28;20462;-69
2021/08/04 08:42:39;;;;;;;1.60;1.37;;;19.70;99.90;;;;;;5035658;28;20482;-69
2021/08/04 08:45:08;;;;;;;1.97;1.80;;;19.50;99.90;;;;;;5035778;28;20448;-69
2021/08/04 08:47:35;;;;;;;1.90;1.70;;;19.40;99.90;;;;;;5035776;28;20862;-69
2021/08/04 08:50:07;;;;;;;1.97;1.77;;;19.30;99.90;;;;;;5035883;28;20447;-69
2021/08/04 08:52:33;;;;;;;1.83;1.63;;;19.30;99.90;;;;;;5035888;28;20440;-69
2021/08/04 08:55:01;;;;;;;1.60;1.50;;;19.40;99.90;;;;;;5035504;28;20444;-69
2021/08/04 08:57:28;;;;;;;1.97;1.70;;;19.40;99.90;;;;;;5035512;28;20480;-69
2021/08/04 08:59:57;;;;;;;1.97;1.53;;;19.50;99.90;;;;;;5035716;28;20452;-69
2021/08/04 09:02:24;;;;;;;1.73;1.63;;;19.60;99.90;;;;;;5034969;28;20495;-69
2021/08/04 09:04:59;;;;;;;1.70;1.60;;;19.70;99.90;;;;;;5035378;28;20455;-69
2021/08/04 09:07:35;;;;;;;2.10;1.90;;;20.00;99.90;;;;;;5035446;28;20552;-69
2021/08/04 09:10:19;;;;;;;1.87;1.77;;;20.30;99.90;;;;;;5035541;28;20452;-69
2021/08/04 09:12:48;;;;;;;2.03;1.53;;;20.40;99.90;;;;;;5035433;28;20450;-69
2021/08/04 09:15:31;;;;;;;2.13;1.53;;;20.40;99.90;;;;;;5035146;28;20445;-69
2021/08/04 09:18:00;;;;;;;1.73;1.63;;;20.40;99.90;;;;;;5034887;28;20474;-69
2021/08/04 09:20:27;;;;;;;1.77;1.67;;;20.70;99.90;;;;;;5035269;28;20530;-69
2021/08/04 09:23:01;;;;;;;1.80;1.70;;;21.50;99.90;;;;;;5035257;28;20481;-69
2021/08/04 09:25:28;;;;;;;2.43;1.87;;;21.90;99.70;;;;;;5034994;28;20478;-69
2021/08/04 09:27:57;;;;;;;1.87;1.67;;;22.10;98.70;;;;;;5035019;28;20469;-69
2021/08/04 09:30:27;;;;;;;2.20;1.87;;;22.10;98.20;;;;;;5034772;28;20458;-69
2021/08/04 09:33:05;;;;;;;2.03;1.70;;;22.10;97.30;;;;;;5035073;28;20474;-69
2021/08/04 09:35:42;;;;;;;1.77;1.67;;;21.80;98.60;;;;;;5034792;28;20439;-69
2021/08/04 09:38:10;;;;;;;2.00;1.80;;;21.80;99.90;;;;;;5034898;28;20816;-69
2021/08/04 09:40:37;;;;;;;2.20;1.80;;;22.10;98.00;;;;;;5034895;28;20538;-69
2021/08/04 09:43:04;;;;;;;2.03;1.90;;;22.20;97.80;;;;;;5034747;28;20493;-69
2021/08/04 09:45:40;;;;;;;2.10;1.90;;;22.30;97.90;;;;;;5034614;28;20925;-69
2021/08/04 09:48:08;;;;;;;1.63;1.43;;;22.30;97.70;;;;;;5035084;28;20477;-69
2021/08/04 09:50:52;;;;;;;2.73;1.80;;;22.40;97.60;;;;;;5034715;28;20498;-69
2021/08/04 09:53:23;;;;;;;2.50;1.97;;;22.30;97.20;;;;;;5034837;28;20439;-69
2021/08/04 09:56:10;;;;;;;2.00;1.90;;;22.40;97.00;;;;;;5034297;28;20963;-69
2021/08/04 09:58:39;;;;;;;1.70;1.60;;;22.50;96.20;;;;;;5034583;28;20824;-69
2021/08/04 10:01:06;;;;;;;2.03;1.93;;;22.40;97.80;;;;;;5034546;28;20543;-69
2021/08/04 10:03:34;;;;;;;2.50;1.90;;;22.00;97.00;;;;;;5034299;28;20475;-69
2021/08/04 10:06:01;;;;;;;1.90;1.80;;;21.50;99.20;;;;;;5034221;28;20458;-69
2021/08/04 10:08:29;;;;;;;2.03;1.93;;;21.20;99.90;;;;;;5034352;28;20887;-69
2021/08/04 10:10:58;;;;;;;2.30;1.90;;;21.00;99.90;;;;;;5034263;28;20450;-69
2021/08/04 10:13:28;;;;;;;2.20;2.00;;;20.90;99.90;;;;;;5033319;28;20438;-69
2021/08/04 10:15:58;;;;;;;2.00;1.90;;;21.00;99.90;;;;;;5033645;28;20944;-69
2021/08/04 10:18:26;;;;;;;4.93;1.50;;;21.00;99.90;;;;;;5034210;28;20477;-69
2021/08/04 10:20:55;;;;;;;2.10;1.87;;;21.00;99.90;;;;;;5034174;28;20496;-69
2021/08/04 10:23:24;;;;;;;2.13;2.03;;;21.20;99.90;;;;;;5034010;28;20483;-69
2021/08/04 10:25:55;;;;;;;1.60;1.50;;;21.10;99.20;;;;;;5033841;28;20457;-69
2021/08/04 10:28:22;;;;;;;2.03;1.70;;;21.30;98.60;;;;;;5034039;28;20984;-69
2021/08/04 10:30:49;;;;;;;2.10;1.90;;;21.40;99.50;;;;;;5033988;28;20451;-69
2021/08/04 10:33:16;;;;;;;1.93;1.73;;;21.70;99.90;;;;;;5033951;28;20445;-69
2021/08/04 10:35:46;;;;;;;2.00;1.90;;;22.30;98.20;;;;;;5033751;28;20526;-69
2021/08/04 10:38:16;;;;;;;1.83;1.63;;;22.60;97.90;;;;;;5033666;28;20467;-69
2021/08/04 10:40:44;;;;;;;2.00;1.73;;;23.00;97.60;;;;;;5033900;28;20534;-69
2021/08/04 10:43:43;;;;;;;2.77;2.10;;;23.20;95.60;;;;;;5033680;28;20478;-69
2021/08/04 10:46:42;;;;;;;1.80;1.70;;;23.00;94.90;;;;;;5033670;28;20451;-69
2021/08/04 10:49:32;;;;;;;1.70;1.60;;;22.60;95.60;;;;;;5033397;28;20466;-69
2021/08/04 10:52:19;;;;;;;1.77;1.47;;;22.30;95.80;;;;;;5031381;28;20451;-69
2021/08/04 10:55:07;;;;;;;1.80;1.60;;;22.00;95.90;;;;;;5033559;28;20865;-70
2021/08/04 10:57:36;;;;;;;2.20;2.00;;;21.60;97.50;;;;;;5033475;28;20472;-69
2021/08/04 11:00:22;;;;;;;1.93;1.63;;;21.30;97.70;;;;;;5033322;28;20450;-69
2021/08/04 11:02:49;;;;;;;1.83;1.70;;;21.10;98.50;;;;;;5033581;28;20488;-69
2021/08/04 11:05:16;;;;;;;2.23;1.80;;;20.90;98.40;;;;;;5033332;28;20541;-69
2021/08/04 11:08:17;;;;;;;2.50;1.93;;;20.90;99.90;;;;;;5033342;28;20501;-69
2021/08/04 11:10:44;;;;;;;1.87;1.73;;;20.80;99.10;;;;;;5033721;28;20532;-69
2021/08/04 11:13:11;;;;;;;1.60;1.50;;;21.00;99.20;;;;;;5033512;28;20441;-69
2021/08/04 11:15:39;;;;;;;1.63;1.53;;;21.00;98.70;;;;;;5032968;28;20442;-70
2021/08/04 11:18:09;;;;;;;1.73;1.60;;;21.10;98.60;;;;;;5033210;28;20468;-69
2021/08/04 11:20:39;;;;;;;2.57;2.10;;;21.30;98.00;;;;;;5033432;28;20443;-69
2021/08/04 11:23:09;;;;;;;2.10;1.70;;;21.40;97.50;;;;;;5033297;28;20575;-69
2021/08/04 11:25:38;;;;;;;1.87;1.70;;;21.60;98.10;;;;;;5036663;28;20961;-69
2021/08/04 11:28:09;;;;;;;2.80;1.63;;;21.70;97.40;;;;;;5037330;28;20466;-69
2021/08/04 11:30:39;;;;;;;2.10;1.87;;;21.70;98.50;;;;;;5037484;28;20767;-69
2021/08/04 11:33:33;;;;;;;1.90;1.80;;;21.90;98.90;;;;;;5037285;28;20880;-69
2021/08/04 11:36:16;;;;;;;1.67;1.57;;;22.10;98.20;;;;;;5037186;28;20454;-69
2021/08/04 11:38:55;;;;;;;1.50;1.40;;;22.30;97.20;;;;;;5037217;28;20476;-69
2021/08/04 11:41:31;;;;;;;2.00;1.77;;;22.40;96.40;;;;;;5037485;28;20531;-69
2021/08/04 11:44:08;;;;;;;2.90;2.30;;;22.30;96.70;;;;;;5037054;28;20478;-69
2021/08/04 11:46:39;;;;;;;2.10;1.90;;;22.30;96.80;;;;;;5036882;28;20533;-69
2021/08/04 11:49:12;;;;;;;2.17;1.70;;;22.20;96.30;;;;;;5037017;28;20473;-69
2021/08/04 11:51:44;;;;;;;1.90;1.73;;;22.20;96.80;;;;;;5036669;28;20438;-69
2021/08/04 11:54:13;;;;;;;2.10;1.70;;;22.20;96.10;;;;;;5036975;28;20545;-69
2021/08/04 11:56:45;;;;;;;1.60;1.50;;;22.20;95.90;;;;;;5036526;28;20950;-69
2021/08/04 11:59:13;;;;;;;1.90;1.30;;;22.30;95.70;;;;;;5037281;28;20474;-69
2021/08/04 12:01:53;;;;;;;1.77;1.67;;;22.30;95.70;;;;;;5036783;28;20447;-69
2021/08/04 12:04:20;;;;;;;2.67;1.87;;;22.50;95.70;;;;;;5036649;28;20983;-69
2021/08/04 12:06:57;;;;;;;2.50;2.00;;;22.50;96.90;;;;;;5036489;28;20443;-69
2021/08/04 12:09:26;;;;;;;1.60;1.50;;;22.70;96.50;;;;;;5037313;28;20427;-69
2021/08/04 12:11:55;;;;;;;3.67;1.60;;;22.60;96.50;;;;;;5036458;28;20441;-69
2021/08/04 12:14:22;;;;;;;1.50;1.40;;;22.80;97.20;;;;;;5036527;28;20530;-69
2021/08/04 12:16:53;;;;;;;1.90;1.63;;;22.90;96.70;;;;;;5036039;28;20462;-70
2021/08/04 12:19:40;;;;;;;1.80;1.70;;;22.90;96.10;;;;;;5036115;28;20464;-69
2021/08/04 12:22:11;;;;;;;2.00;1.60;;;22.90;95.60;;;;;;5036140;28;20441;-69
2021/08/04 12:24:46;;;;;;;1.73;1.63;;;22.70;96.00;;;;;;5036201;28;20457;-69
2021/08/04 12:27:14;;;;;;;1.80;1.70;;;22.70;94.10;;;;;;5036284;28;20445;-69
2021/08/04 12:29:41;;;;;;;2.17;1.60;;;22.70;96.10;;;;;;5036249;28;20442;-69
2021/08/04 12:32:21;;;;;;;1.90;1.80;;;22.70;95.70;;;;;;5036629;28;20453;-69
2021/08/04 12:35:01;;;;;;;1.83;1.47;;;22.70;95.30;;;;;;5035849;28;20444;-69
2021/08/04 12:37:31;;;;;;;2.27;1.80;;;22.50;95.90;;;;;;5035532;28;20470;-69
2021/08/04 12:40:06;;;;;;;1.77;1.40;;;22.50;98.20;;;;;;5036057;28;20446;-69
2021/08/04 12:42:33;;;;;;;1.87;1.40;;;22.50;97.60;;;;;;5035958;28;20471;-69
2021/08/04 12:45:22;;;;;;;1.50;1.40;;;22.50;96.40;;;;;;5035777;28;20451;-69
2021/08/04 12:47:57;;;;;;;1.70;1.60;;;22.60;96.30;;;;;;5036132;28;20508;-69
2021/08/04 12:50:26;;;;;;;1.40;1.30;;;22.50;97.30;;;;;;5035915;28;20434;-69
2021/08/04 12:52:53;;;;;;;1.70;1.60;;;22.60;96.70;;;;;;5035820;28;20442;-69
2021/08/04 12:55:20;;;;;;;1.50;1.40;;;22.60;98.80;;;;;;5035544;28;20447;-69
2021/08/04 12:58:01;;;;;;;1.50;1.40;;;22.50;97.10;;;;;;5035477;28;20505;-69
2021/08/04 13:00:30;;;;;;;1.50;1.40;;;22.60;97.10;;;;;;5035851;28;20783;-69